Hovedside
METAR-TAF:

METAR-TAF

Lufthavner :

Vladivostok internasjonale lufthavn

Vladivostok, Russland

breddegrad: 43-07N, lengdegrad: 131-56E, høyde over havet: 184 m

Gjeldene værobservasjon

Denne rapporten ble laget for 24 minutter siden, klokken 19:00 UTC
Vind 2 kt fra Nord
Temperatur -13°C
Luftfuktighet 85%
Trykk 1019 hPa
Sikt 10 km eller mer

METAR: UHWW 151900Z 36001MPS 9999 NSC M13/M15 Q1019 R25L/0///70 NOSIG RMK QFE763

Tid: 05:24 (19:24 UTC)

Varsel

Denne rapporten ble laget for 2 timer og 24 minutter siden, klokken 17:00 UTC
Varsel gyldig fra 15. klokken 18 UTC til 16. klokken 18 UTC
Vind 6 kt fra Nordvest
Sikt 10 km eller mer
Midlertidig
fra 15. klokken 18 UTC til 16. klokken 09 UTC
Vind 19 kt fra Nordvest
Spredte skyer i en høyde av 3000 ft, Bygeskyer.

TAF: UHWW 151700Z 1518/1618 32003MPS 9999 NSC TEMPO 1518/1609 32010MPS SCT030CB

Værobservasjoner og værvarsel for over 4000 flyplasser (METAR- og TAF-rapporter).

Tilgjengelige stasjoner er representert av de røde og gule prikkene på kartet.

Hold musepekeren over prikken for å se navnet på stasjonen.

Klikk så for å se værobservasjoner og -varsler.

For å forandre kartet kan du klikke på den grønne knappen med svart kryss for å zoome inn, på den grønne knappen med strek for å zoome ut, eller på de grønne pilene for å se tilstøtende kart.


METAR-TAF: